Погода Макунинона 2 недели

Смоленская область, Россия

25 мая-07 июня
  • 25мая
    Сегодня
    +8°
    +25°
    Ясно и безоблачно
    ВремяПогодаТемператураВлажностьДавлениеВетер, м/сВероятность осадков
    00:00Ясно и безоблачно+10°C54 %757 мм2.7 м/с2 %
    03:00Ясно и безоблачно+8°C65 %757 мм2.4 м/с2 %
    06:00Ясно и безоблачно+9°C68 %757 мм2.4 м/с2 %
    09:00Ясно и безоблачно+17°C55 %757 мм1.8 м/с2 %
    12:00Ясно и безоблачно+23°C41 %757 мм1.7 м/с2 %
    15:00Ясно и безоблачно+24°C38 %756 мм1.8 м/с2 %
    18:00Ясно и безоблачно+24°C39 %755 мм1.3 м/с2 %
    21:00Ясно и безоблачно+20°C48 %754 мм1.1 м/с2 %
  • 26мая
    Воскресенье
    +11°
    +26°
    Практически безоблачно
    ВремяПогодаТемператураВлажностьДавлениеВетер, м/сВероятность осадков
    00:00Ясно и безоблачно+12°C75 %754 мм1.7 м/с2 %
    03:00Ясно и безоблачно+9°C86 %754 мм2.3 м/с2 %
    06:00Ясно и безоблачно+11°C82 %754 мм1.6 м/с2 %
    09:00Ясно и безоблачно+19°C63 %755 мм1.1 м/с2 %
    12:00Ясно и безоблачно+25°C40 %754 мм1.4 м/с2 %
    15:00Практически безоблачно+25°C36 %754 мм1.3 м/с2 %
    18:00Практически безоблачно+26°C40 %753 мм2.0 м/с7 %
    21:00Практически безоблачно+21°C56 %753 мм1.3 м/с4 %
  • 27мая
    Понедельник
    +11°
    +26°
    Облачно с прояснениями
    ВремяПогодаТемператураВлажностьДавлениеВетер, м/сВероятность осадков
    00:00Ясно и безоблачно+13°C74 %753 мм2.0 м/с2 %
    03:00Ясно и безоблачно+12°C83 %754 мм1.9 м/с2 %
    06:00Ясно и безоблачно+13°C88 %754 мм2.2 м/с2 %
    09:00Ясно и безоблачно+20°C72 %755 мм1.9 м/с2 %
    12:00Практически безоблачно+25°C55 %755 мм1.8 м/с13 %
    15:00Облачно с прояснениями+25°C48 %754 мм1.2 м/с21 %
    18:00Небольшая облачность и лёгкий дождик+24°C60 %753 мм1.7 м/с44 %
    21:00Практически безоблачно+20°C70 %753 мм0.2 м/с8 %
  • 28мая
    Вторник
    +9°
    +25°
    Небольшая облачность
    ВремяПогодаТемператураВлажностьДавлениеВетер, м/сВероятность осадков
    00:00Ясно и безоблачно+14°C86 %753 мм1.6 м/с2 %
    03:00Ясно и безоблачно+12°C93 %753 мм1.6 м/с2 %
    06:00Ясно и безоблачно+13°C89 %752 мм1.9 м/с2 %
    09:00Ясно и безоблачно+21°C66 %753 мм1.5 м/с2 %
    12:00Практически безоблачно+25°C48 %752 мм2.0 м/с16 %
    15:00Небольшая облачность+24°C44 %752 мм1.3 м/с24 %
    18:00Ясно и безоблачно+25°C44 %751 мм1.2 м/с32 %
    21:00Практически безоблачно+20°C70 %750 мм1.7 м/с12 %
  • 29мая
    Среда
    +10°
    +26°
    Практически безоблачно
    ВремяПогодаТемператураВлажностьДавлениеВетер, м/сВероятность осадков
    00:00Ясно и безоблачно+14°C82 %750 мм1.9 м/с4 %
    03:00Ясно и безоблачно+11°C90 %750 мм1.5 м/с2 %
    06:00Ясно и безоблачно+12°C89 %749 мм0.9 м/с2 %
    09:00Ясно и безоблачно+21°C65 %749 мм1.4 м/с4 %
    12:00Облачно с прояснениями+25°C46 %749 мм2.5 м/с33 %
    15:00Практически безоблачно+25°C42 %748 мм2.2 м/с34 %
    18:00Небольшая облачность, возможен дождь с грозой+24°C57 %747 мм2.4 м/с35 %
    21:00Небольшая облачность+21°C68 %747 мм0.3 м/с10 %
Мы используем cookies
Соглашаюсь